sensor_id;sensor_type;location;lat;lon;timestamp;P1;durP1;ratioP1;P2;durP2;ratioP2
72198;SDS011;60103;51.014;16.992;2022-11-03T00:01:39;13.00;;;4.60;;
72198;SDS011;60103;51.014;16.992;2022-11-03T00:04:09;15.90;;;5.20;;
72198;SDS011;60103;51.014;16.992;2022-11-03T00:06:38;16.30;;;5.10;;
72198;SDS011;60103;51.014;16.992;2022-11-03T00:09:08;16.60;;;5.70;;
72198;SDS011;60103;51.014;16.992;2022-11-03T00:11:37;15.60;;;5.60;;
72198;SDS011;60103;51.014;16.992;2022-11-03T00:14:06;18.00;;;6.00;;
72198;SDS011;60103;51.014;16.992;2022-11-03T00:16:38;16.30;;;6.00;;
72198;SDS011;60103;51.014;16.992;2022-11-03T00:19:06;13.30;;;5.20;;
72198;SDS011;60103;51.014;16.992;2022-11-03T00:21:34;15.70;;;5.50;;
72198;SDS011;60103;51.014;16.992;2022-11-03T00:24:03;17.10;;;5.80;;
72198;SDS011;60103;51.014;16.992;2022-11-03T00:26:32;14.40;;;5.30;;
72198;SDS011;60103;51.014;16.992;2022-11-03T00:29:04;14.30;;;5.30;;
72198;SDS011;60103;51.014;16.992;2022-11-03T00:31:37;15.20;;;5.60;;
72198;SDS011;60103;51.014;16.992;2022-11-03T00:34:05;16.60;;;5.80;;
72198;SDS011;60103;51.014;16.992;2022-11-03T00:36:34;16.10;;;5.10;;
72198;SDS011;60103;51.014;16.992;2022-11-03T00:39:05;15.70;;;5.40;;
72198;SDS011;60103;51.014;16.992;2022-11-03T00:41:33;15.60;;;5.70;;
72198;SDS011;60103;51.014;16.992;2022-11-03T00:44:00;14.30;;;5.40;;
72198;SDS011;60103;51.014;16.992;2022-11-03T00:46:29;15.50;;;5.50;;
72198;SDS011;60103;51.014;16.992;2022-11-03T00:48:56;17.40;;;5.80;;
72198;SDS011;60103;51.014;16.992;2022-11-03T00:51:27;12.50;;;5.20;;
72198;SDS011;60103;51.014;16.992;2022-11-03T00:54:00;13.10;;;5.10;;
72198;SDS011;60103;51.014;16.992;2022-11-03T00:59:03;16.50;;;5.40;;
72198;SDS011;60103;51.014;16.992;2022-11-03T01:01:35;14.40;;;5.30;;
72198;SDS011;60103;51.014;16.992;2022-11-03T01:04:12;14.70;;;5.60;;
72198;SDS011;60103;51.014;16.992;2022-11-03T01:06:59;15.70;;;5.90;;
72198;SDS011;60103;51.014;16.992;2022-11-03T01:09:34;15.40;;;5.20;;
72198;SDS011;60103;51.014;16.992;2022-11-03T01:14:41;14.50;;;5.10;;
72198;SDS011;60103;51.014;16.992;2022-11-03T01:17:14;13.50;;;5.10;;
72198;SDS011;60103;51.014;16.992;2022-11-03T01:19:43;13.60;;;5.00;;
72198;SDS011;60103;51.014;16.992;2022-11-03T01:22:11;13.40;;;5.10;;
72198;SDS011;60103;51.014;16.992;2022-11-03T01:24:39;16.50;;;5.30;;
72198;SDS011;60103;51.014;16.992;2022-11-03T01:27:11;14.00;;;5.20;;
72198;SDS011;60103;51.014;16.992;2022-11-03T01:29:42;15.50;;;5.50;;
72198;SDS011;60103;51.014;16.992;2022-11-03T01:32:09;14.10;;;5.50;;
72198;SDS011;60103;51.014;16.992;2022-11-03T01:34:37;15.60;;;5.40;;
72198;SDS011;60103;51.014;16.992;2022-11-03T01:37:05;15.20;;;5.00;;
72198;SDS011;60103;51.014;16.992;2022-11-03T01:39:33;13.80;;;5.00;;
72198;SDS011;60103;51.014;16.992;2022-11-03T01:42:01;18.20;;;5.20;;
72198;SDS011;60103;51.014;16.992;2022-11-03T01:47:21;14.80;;;5.40;;
72198;SDS011;60103;51.014;16.992;2022-11-03T01:55:15;16.80;;;5.00;;
72198;SDS011;60103;51.014;16.992;2022-11-03T02:00:28;16.70;;;4.60;;
72198;SDS011;60103;51.014;16.992;2022-11-03T02:02:56;15.80;;;4.90;;
72198;SDS011;60103;51.014;16.992;2022-11-03T02:05:24;16.30;;;5.60;;
72198;SDS011;60103;51.014;16.992;2022-11-03T02:07:56;15.30;;;5.40;;
72198;SDS011;60103;51.014;16.992;2022-11-03T02:10:26;16.10;;;5.50;;
72198;SDS011;60103;51.014;16.992;2022-11-03T02:12:53;16.60;;;5.40;;
72198;SDS011;60103;51.014;16.992;2022-11-03T02:15:21;14.40;;;4.50;;
72198;SDS011;60103;51.014;16.992;2022-11-03T02:17:49;14.10;;;4.80;;
72198;SDS011;60103;51.014;16.992;2022-11-03T02:20:19;12.50;;;4.70;;
72198;SDS011;60103;51.014;16.992;2022-11-03T02:28:02;14.60;;;5.00;;
72198;SDS011;60103;51.014;16.992;2022-11-03T02:30:34;13.60;;;4.60;;
72198;SDS011;60103;51.014;16.992;2022-11-03T02:33:26;11.70;;;4.30;;
72198;SDS011;60103;51.014;16.992;2022-11-03T02:36:11;11.90;;;4.30;;
72198;SDS011;60103;51.014;16.992;2022-11-03T02:38:44;13.80;;;4.50;;
72198;SDS011;60103;51.014;16.992;2022-11-03T02:41:16;13.90;;;4.80;;
72198;SDS011;60103;51.014;16.992;2022-11-03T02:43:44;12.40;;;4.70;;
72198;SDS011;60103;51.014;16.992;2022-11-03T02:46:12;13.90;;;4.70;;
72198;SDS011;60103;51.014;16.992;2022-11-03T02:48:41;12.10;;;4.80;;
72198;SDS011;60103;51.014;16.992;2022-11-03T02:51:08;15.40;;;5.40;;
72198;SDS011;60103;51.014;16.992;2022-11-03T02:53:37;14.20;;;5.60;;
72198;SDS011;60103;51.014;16.992;2022-11-03T02:56:13;15.20;;;5.40;;
72198;SDS011;60103;51.014;16.992;2022-11-03T02:58:45;14.80;;;5.40;;
72198;SDS011;60103;51.014;16.992;2022-11-03T03:04:02;15.50;;;5.30;;
72198;SDS011;60103;51.014;16.992;2022-11-03T03:06:41;12.30;;;5.10;;
72198;SDS011;60103;51.014;16.992;2022-11-03T03:09:11;12.00;;;5.00;;
72198;SDS011;60103;51.014;16.992;2022-11-03T03:11:43;12.30;;;4.40;;
72198;SDS011;60103;51.014;16.992;2022-11-03T03:14:14;12.80;;;5.30;;
72198;SDS011;60103;51.014;16.992;2022-11-03T03:19:22;13.30;;;4.70;;
72198;SDS011;60103;51.014;16.992;2022-11-03T03:21:52;14.70;;;5.30;;
72198;SDS011;60103;51.014;16.992;2022-11-03T03:24:24;14.00;;;4.30;;
72198;SDS011;60103;51.014;16.992;2022-11-03T03:26:56;13.50;;;5.10;;
72198;SDS011;60103;51.014;16.992;2022-11-03T03:29:28;10.60;;;3.90;;
72198;SDS011;60103;51.014;16.992;2022-11-03T03:31:59;14.30;;;4.80;;
72198;SDS011;60103;51.014;16.992;2022-11-03T03:34:27;11.90;;;4.50;;
72198;SDS011;60103;51.014;16.992;2022-11-03T03:37:03;11.00;;;4.80;;
72198;SDS011;60103;51.014;16.992;2022-11-03T03:39:32;13.40;;;4.60;;
72198;SDS011;60103;51.014;16.992;2022-11-03T03:42:01;11.60;;;4.50;;
72198;SDS011;60103;51.014;16.992;2022-11-03T03:44:29;12.50;;;4.70;;
72198;SDS011;60103;51.014;16.992;2022-11-03T03:47:00;10.90;;;4.50;;
72198;SDS011;60103;51.014;16.992;2022-11-03T03:49:30;12.80;;;4.80;;
72198;SDS011;60103;51.014;16.992;2022-11-03T03:51:57;12.50;;;4.50;;
72198;SDS011;60103;51.014;16.992;2022-11-03T03:54:25;13.30;;;4.50;;
72198;SDS011;60103;51.014;16.992;2022-11-03T03:57:04;11.90;;;3.60;;
72198;SDS011;60103;51.014;16.992;2022-11-03T03:59:33;11.60;;;4.20;;
72198;SDS011;60103;51.014;16.992;2022-11-03T04:02:00;11.80;;;4.30;;
72198;SDS011;60103;51.014;16.992;2022-11-03T04:04:29;12.10;;;4.20;;
72198;SDS011;60103;51.014;16.992;2022-11-03T04:06:56;16.50;;;5.10;;
72198;SDS011;60103;51.014;16.992;2022-11-03T04:09:41;13.00;;;5.20;;
72198;SDS011;60103;51.014;16.992;2022-11-03T04:12:09;12.30;;;5.00;;
72198;SDS011;60103;51.014;16.992;2022-11-03T04:14:55;12.80;;;4.70;;
72198;SDS011;60103;51.014;16.992;2022-11-03T04:17:41;14.10;;;5.00;;
72198;SDS011;60103;51.014;16.992;2022-11-03T04:20:29;12.30;;;4.50;;
72198;SDS011;60103;51.014;16.992;2022-11-03T04:23:15;13.20;;;4.80;;
72198;SDS011;60103;51.014;16.992;2022-11-03T04:25:46;14.50;;;5.40;;
72198;SDS011;60103;51.014;16.992;2022-11-03T04:28:14;9.80;;;4.10;;
72198;SDS011;60103;51.014;16.992;2022-11-03T04:30:42;12.30;;;5.20;;
72198;SDS011;60103;51.014;16.992;2022-11-03T04:33:21;13.10;;;5.10;;
72198;SDS011;60103;51.014;16.992;2022-11-03T04:35:49;14.60;;;4.50;;
72198;SDS011;60103;51.014;16.992;2022-11-03T04:40:53;10.80;;;4.20;;
72198;SDS011;60103;51.014;16.992;2022-11-03T04:43:34;15.40;;;4.50;;
72198;SDS011;60103;51.014;16.992;2022-11-03T04:46:03;13.40;;;4.80;;
72198;SDS011;60103;51.014;16.992;2022-11-03T04:48:31;13.70;;;4.30;;
72198;SDS011;60103;51.014;16.992;2022-11-03T04:50:59;10.50;;;4.10;;
72198;SDS011;60103;51.014;16.992;2022-11-03T04:53:31;12.60;;;4.60;;
72198;SDS011;60103;51.014;16.992;2022-11-03T04:55:58;12.60;;;3.90;;
72198;SDS011;60103;51.014;16.992;2022-11-03T04:58:32;13.40;;;4.20;;
72198;SDS011;60103;51.014;16.992;2022-11-03T05:01:01;10.90;;;4.20;;
72198;SDS011;60103;51.014;16.992;2022-11-03T05:03:31;13.40;;;4.20;;
72198;SDS011;60103;51.014;16.992;2022-11-03T05:06:00;13.80;;;4.80;;
72198;SDS011;60103;51.014;16.992;2022-11-03T05:08:36;16.10;;;4.90;;
72198;SDS011;60103;51.014;16.992;2022-11-03T05:16:59;10.30;;;3.80;;
72198;SDS011;60103;51.014;16.992;2022-11-03T05:19:34;10.90;;;3.90;;
72198;SDS011;60103;51.014;16.992;2022-11-03T05:22:04;13.10;;;4.70;;
72198;SDS011;60103;51.014;16.992;2022-11-03T05:24:31;13.20;;;4.30;;
72198;SDS011;60103;51.014;16.992;2022-11-03T05:26:59;15.00;;;4.20;;
72198;SDS011;60103;51.014;16.992;2022-11-03T05:32:07;10.30;;;3.70;;
72198;SDS011;60103;51.014;16.992;2022-11-03T05:34:45;12.60;;;4.20;;
72198;SDS011;60103;51.014;16.992;2022-11-03T05:39:54;15.40;;;4.50;;
72198;SDS011;60103;51.014;16.992;2022-11-03T05:42:43;11.80;;;4.30;;
72198;SDS011;60103;51.014;16.992;2022-11-03T05:47:42;13.10;;;4.20;;
72198;SDS011;60103;51.014;16.992;2022-11-03T05:50:17;11.70;;;4.50;;
72198;SDS011;60103;51.014;16.992;2022-11-03T05:52:47;15.60;;;4.60;;
72198;SDS011;60103;51.014;16.992;2022-11-03T05:55:21;14.00;;;4.70;;
72198;SDS011;60103;51.014;16.992;2022-11-03T05:58:24;12.50;;;4.90;;
72198;SDS011;60103;51.014;16.992;2022-11-03T06:00:57;12.80;;;5.50;;
72198;SDS011;60103;51.014;16.992;2022-11-03T06:03:27;12.30;;;4.60;;
72198;SDS011;60103;51.014;16.992;2022-11-03T06:05:57;13.80;;;5.20;;
72198;SDS011;60103;51.014;16.992;2022-11-03T06:08:27;13.80;;;4.60;;
72198;SDS011;60103;51.014;16.992;2022-11-03T06:11:00;14.90;;;5.20;;
72198;SDS011;60103;51.014;16.992;2022-11-03T06:13:30;15.60;;;5.10;;
72198;SDS011;60103;51.014;16.992;2022-11-03T06:19:00;11.50;;;4.60;;
72198;SDS011;60103;51.014;16.992;2022-11-03T06:21:31;17.10;;;5.70;;
72198;SDS011;60103;51.014;16.992;2022-11-03T06:23:58;13.90;;;5.60;;
72198;SDS011;60103;51.014;16.992;2022-11-03T06:26:26;16.10;;;6.20;;
72198;SDS011;60103;51.014;16.992;2022-11-03T06:28:53;12.20;;;5.10;;
72198;SDS011;60103;51.014;16.992;2022-11-03T06:31:27;12.00;;;5.00;;
72198;SDS011;60103;51.014;16.992;2022-11-03T06:33:57;15.40;;;5.10;;
72198;SDS011;60103;51.014;16.992;2022-11-03T06:36:30;16.20;;;4.90;;
72198;SDS011;60103;51.014;16.992;2022-11-03T06:39:44;11.90;;;5.00;;
72198;SDS011;60103;51.014;16.992;2022-11-03T06:41:49;12.20;;;5.60;;
72198;SDS011;60103;51.014;16.992;2022-11-03T06:44:26;13.10;;;5.40;;
72198;SDS011;60103;51.014;16.992;2022-11-03T06:47:01;13.60;;;4.70;;
72198;SDS011;60103;51.014;16.992;2022-11-03T06:49:41;13.60;;;5.00;;
72198;SDS011;60103;51.014;16.992;2022-11-03T06:52:28;12.30;;;4.90;;
72198;SDS011;60103;51.014;16.992;2022-11-03T06:57:43;13.30;;;4.90;;
72198;SDS011;60103;51.014;16.992;2022-11-03T07:00:21;13.80;;;5.20;;
72198;SDS011;60103;51.014;16.992;2022-11-03T07:05:43;12.60;;;4.80;;
72198;SDS011;60103;51.014;16.992;2022-11-03T07:13:42;10.00;;;3.90;;
72198;SDS011;60103;51.014;16.992;2022-11-03T07:16:13;11.80;;;3.50;;
72198;SDS011;60103;51.014;16.992;2022-11-03T07:18:44;13.40;;;4.10;;
72198;SDS011;60103;51.014;16.992;2022-11-03T07:24:04;13.50;;;4.60;;
72198;SDS011;60103;51.014;16.992;2022-11-03T07:27:01;10.50;;;3.90;;
72198;SDS011;60103;51.014;16.992;2022-11-03T07:29:39;13.90;;;5.10;;
72198;SDS011;60103;51.014;16.992;2022-11-03T07:32:20;11.00;;;4.10;;
72198;SDS011;60103;51.014;16.992;2022-11-03T07:34:50;12.40;;;4.60;;
72198;SDS011;60103;51.014;16.992;2022-11-03T07:37:20;11.30;;;3.90;;
72198;SDS011;60103;51.014;16.992;2022-11-03T07:39:49;14.90;;;5.00;;
72198;SDS011;60103;51.014;16.992;2022-11-03T07:42:20;12.10;;;5.00;;
72198;SDS011;60103;51.014;16.992;2022-11-03T07:44:50;12.80;;;4.70;;
72198;SDS011;60103;51.014;16.992;2022-11-03T07:47:19;13.00;;;3.90;;
72198;SDS011;60103;51.014;16.992;2022-11-03T07:49:54;10.50;;;3.30;;
72198;SDS011;60103;51.014;16.992;2022-11-03T07:52:23;11.00;;;4.20;;
72198;SDS011;60103;51.014;16.992;2022-11-03T07:54:50;16.40;;;4.40;;
72198;SDS011;60103;51.014;16.992;2022-11-03T07:57:27;12.00;;;3.90;;
72198;SDS011;60103;51.014;16.992;2022-11-03T07:59:57;13.10;;;4.00;;
72198;SDS011;60103;51.014;16.992;2022-11-03T08:02:56;10.10;;;3.60;;
72198;SDS011;60103;51.014;16.992;2022-11-03T08:05:25;9.70;;;2.80;;
72198;SDS011;60103;51.014;16.992;2022-11-03T08:07:52;13.00;;;4.60;;
72198;SDS011;60103;51.014;16.992;2022-11-03T08:10:19;12.00;;;4.70;;
72198;SDS011;60103;51.014;16.992;2022-11-03T08:12:47;12.80;;;5.40;;
72198;SDS011;60103;51.014;16.992;2022-11-03T08:15:14;12.70;;;5.00;;
72198;SDS011;60103;51.014;16.992;2022-11-03T08:17:42;13.80;;;5.80;;
72198;SDS011;60103;51.014;16.992;2022-11-03T08:20:09;15.70;;;6.30;;
72198;SDS011;60103;51.014;16.992;2022-11-03T08:22:37;15.60;;;6.30;;
72198;SDS011;60103;51.014;16.992;2022-11-03T08:25:04;17.10;;;6.80;;
72198;SDS011;60103;51.014;16.992;2022-11-03T08:27:32;17.00;;;6.80;;
72198;SDS011;60103;51.014;16.992;2022-11-03T08:29:59;13.50;;;5.10;;
72198;SDS011;60103;51.014;16.992;2022-11-03T08:32:26;14.50;;;5.20;;
72198;SDS011;60103;51.014;16.992;2022-11-03T08:34:54;12.40;;;4.60;;
72198;SDS011;60103;51.014;16.992;2022-11-03T08:37:21;11.00;;;3.90;;
72198;SDS011;60103;51.014;16.992;2022-11-03T08:39:48;11.50;;;3.50;;
72198;SDS011;60103;51.014;16.992;2022-11-03T08:42:15;9.60;;;3.50;;
72198;SDS011;60103;51.014;16.992;2022-11-03T08:44:42;11.20;;;4.10;;
72198;SDS011;60103;51.014;16.992;2022-11-03T08:47:10;9.50;;;3.70;;
72198;SDS011;60103;51.014;16.992;2022-11-03T08:49:37;10.50;;;3.70;;
72198;SDS011;60103;51.014;16.992;2022-11-03T08:52:04;10.90;;;3.80;;
72198;SDS011;60103;51.014;16.992;2022-11-03T08:54:31;10.10;;;2.90;;
72198;SDS011;60103;51.014;16.992;2022-11-03T08:56:58;12.00;;;3.60;;
72198;SDS011;60103;51.014;16.992;2022-11-03T08:59:25;11.50;;;3.60;;
72198;SDS011;60103;51.014;16.992;2022-11-03T09:01:53;11.30;;;3.80;;
72198;SDS011;60103;51.014;16.992;2022-11-03T09:04:20;9.40;;;3.60;;
72198;SDS011;60103;51.014;16.992;2022-11-03T09:06:47;12.00;;;3.60;;
72198;SDS011;60103;51.014;16.992;2022-11-03T09:09:15;11.40;;;3.90;;
72198;SDS011;60103;51.014;16.992;2022-11-03T09:12:02;11.50;;;3.00;;
72198;SDS011;60103;51.014;16.992;2022-11-03T09:14:30;12.50;;;3.90;;
72198;SDS011;60103;51.014;16.992;2022-11-03T09:16:58;9.30;;;2.80;;
72198;SDS011;60103;51.014;16.992;2022-11-03T09:19:25;9.20;;;2.60;;
72198;SDS011;60103;51.014;16.992;2022-11-03T09:21:52;11.40;;;3.10;;
72198;SDS011;60103;51.014;16.992;2022-11-03T09:24:20;8.40;;;2.50;;
72198;SDS011;60103;51.014;16.992;2022-11-03T09:26:49;7.60;;;2.70;;
72198;SDS011;60103;51.014;16.992;2022-11-03T09:29:17;10.50;;;2.70;;
72198;SDS011;60103;51.014;16.992;2022-11-03T09:31:44;9.70;;;2.10;;
72198;SDS011;60103;51.014;16.992;2022-11-03T09:34:11;8.70;;;2.00;;
72198;SDS011;60103;51.014;16.992;2022-11-03T09:36:39;9.50;;;2.40;;
72198;SDS011;60103;51.014;16.992;2022-11-03T09:39:06;8.90;;;2.20;;
72198;SDS011;60103;51.014;16.992;2022-11-03T09:41:34;8.80;;;2.40;;
72198;SDS011;60103;51.014;16.992;2022-11-03T09:44:21;6.40;;;1.70;;
72198;SDS011;60103;51.014;16.992;2022-11-03T09:46:49;8.60;;;2.00;;
72198;SDS011;60103;51.014;16.992;2022-11-03T09:49:23;11.10;;;2.60;;
72198;SDS011;60103;51.014;16.992;2022-11-03T09:51:51;9.40;;;2.10;;
72198;SDS011;60103;51.014;16.992;2022-11-03T09:54:19;9.00;;;2.30;;
72198;SDS011;60103;51.014;16.992;2022-11-03T09:56:47;9.10;;;1.90;;
72198;SDS011;60103;51.014;16.992;2022-11-03T09:59:21;5.90;;;1.50;;
72198;SDS011;60103;51.014;16.992;2022-11-03T10:01:49;7.50;;;1.60;;
72198;SDS011;60103;51.014;16.992;2022-11-03T10:04:21;6.20;;;1.60;;
72198;SDS011;60103;51.014;16.992;2022-11-03T10:06:56;7.00;;;1.70;;
72198;SDS011;60103;51.014;16.992;2022-11-03T10:09:24;9.20;;;2.30;;
72198;SDS011;60103;51.014;16.992;2022-11-03T10:11:52;9.30;;;2.80;;
72198;SDS011;60103;51.014;16.992;2022-11-03T10:14:20;6.30;;;1.90;;
72198;SDS011;60103;51.014;16.992;2022-11-03T10:16:54;9.30;;;1.60;;
72198;SDS011;60103;51.014;16.992;2022-11-03T10:19:23;9.50;;;1.60;;
72198;SDS011;60103;51.014;16.992;2022-11-03T10:21:51;8.10;;;1.80;;
72198;SDS011;60103;51.014;16.992;2022-11-03T10:24:18;9.90;;;2.20;;
72198;SDS011;60103;51.014;16.992;2022-11-03T10:29:18;8.80;;;2.60;;
72198;SDS011;60103;51.014;16.992;2022-11-03T10:31:58;5.90;;;1.60;;
72198;SDS011;60103;51.014;16.992;2022-11-03T10:34:33;10.00;;;2.50;;
72198;SDS011;60103;51.014;16.992;2022-11-03T10:39:52;9.20;;;2.50;;
72198;SDS011;60103;51.014;16.992;2022-11-03T10:42:28;8.90;;;2.60;;
72198;SDS011;60103;51.014;16.992;2022-11-03T10:47:57;7.70;;;2.20;;
72198;SDS011;60103;51.014;16.992;2022-11-03T10:50:26;7.40;;;2.20;;
72198;SDS011;60103;51.014;16.992;2022-11-03T10:52:54;8.50;;;2.30;;
72198;SDS011;60103;51.014;16.992;2022-11-03T10:55:22;9.40;;;2.40;;
72198;SDS011;60103;51.014;16.992;2022-11-03T10:57:51;7.90;;;2.20;;
72198;SDS011;60103;51.014;16.992;2022-11-03T11:00:21;9.00;;;2.20;;
72198;SDS011;60103;51.014;16.992;2022-11-03T11:02:51;9.00;;;2.40;;
72198;SDS011;60103;51.014;16.992;2022-11-03T11:05:22;9.50;;;2.80;;
72198;SDS011;60103;51.014;16.992;2022-11-03T11:07:51;11.40;;;3.20;;
72198;SDS011;60103;51.014;16.992;2022-11-03T11:10:29;10.40;;;2.50;;
72198;SDS011;60103;51.014;16.992;2022-11-03T11:13:01;9.90;;;2.50;;
72198;SDS011;60103;51.014;16.992;2022-11-03T11:15:42;8.40;;;2.20;;
72198;SDS011;60103;51.014;16.992;2022-11-03T11:20:55;8.30;;;2.30;;
72198;SDS011;60103;51.014;16.992;2022-11-03T11:28:37;8.50;;;1.90;;
72198;SDS011;60103;51.014;16.992;2022-11-03T11:31:31;8.50;;;1.60;;
72198;SDS011;60103;51.014;16.992;2022-11-03T11:36:40;7.80;;;2.40;;
72198;SDS011;60103;51.014;16.992;2022-11-03T11:42:04;5.80;;;1.60;;
72198;SDS011;60103;51.014;16.992;2022-11-03T11:55:10;8.90;;;2.20;;
72198;SDS011;60103;51.014;16.992;2022-11-03T11:57:45;5.60;;;1.50;;
72198;SDS011;60103;51.014;16.992;2022-11-03T12:00:17;7.90;;;2.20;;
72198;SDS011;60103;51.014;16.992;2022-11-03T12:02:50;8.80;;;2.60;;
72198;SDS011;60103;51.014;16.992;2022-11-03T12:05:20;9.90;;;2.20;;
72198;SDS011;60103;51.014;16.992;2022-11-03T12:07:58;8.50;;;2.30;;
72198;SDS011;60103;51.014;16.992;2022-11-03T12:10:27;8.40;;;2.10;;
72198;SDS011;60103;51.014;16.992;2022-11-03T12:12:57;7.10;;;2.00;;
72198;SDS011;60103;51.014;16.992;2022-11-03T12:18:41;7.40;;;2.10;;
72198;SDS011;60103;51.014;16.992;2022-11-03T12:27:16;8.50;;;2.10;;
72198;SDS011;60103;51.014;16.992;2022-11-03T12:29:45;8.60;;;2.10;;
72198;SDS011;60103;51.014;16.992;2022-11-03T12:32:12;9.00;;;2.40;;
72198;SDS011;60103;51.014;16.992;2022-11-03T12:34:58;6.40;;;1.70;;
72198;SDS011;60103;51.014;16.992;2022-11-03T12:37:25;8.20;;;1.80;;
72198;SDS011;60103;51.014;16.992;2022-11-03T12:39:53;8.80;;;2.00;;
72198;SDS011;60103;51.014;16.992;2022-11-03T12:42:20;10.90;;;2.70;;
72198;SDS011;60103;51.014;16.992;2022-11-03T12:44:51;8.10;;;2.10;;
72198;SDS011;60103;51.014;16.992;2022-11-03T12:47:19;7.60;;;1.90;;
72198;SDS011;60103;51.014;16.992;2022-11-03T12:49:47;8.20;;;1.90;;
72198;SDS011;60103;51.014;16.992;2022-11-03T12:52:15;6.00;;;1.60;;
72198;SDS011;60103;51.014;16.992;2022-11-03T12:54:43;9.40;;;2.20;;
72198;SDS011;60103;51.014;16.992;2022-11-03T12:57:10;10.00;;;2.70;;
72198;SDS011;60103;51.014;16.992;2022-11-03T12:59:38;10.10;;;2.40;;
72198;SDS011;60103;51.014;16.992;2022-11-03T13:02:05;10.30;;;2.20;;
72198;SDS011;60103;51.014;16.992;2022-11-03T13:04:34;7.10;;;2.10;;
72198;SDS011;60103;51.014;16.992;2022-11-03T13:07:01;10.40;;;2.70;;
72198;SDS011;60103;51.014;16.992;2022-11-03T13:09:32;7.30;;;2.30;;
72198;SDS011;60103;51.014;16.992;2022-11-03T13:12:01;12.80;;;3.00;;
72198;SDS011;60103;51.014;16.992;2022-11-03T13:14:47;7.90;;;1.90;;
72198;SDS011;60103;51.014;16.992;2022-11-03T13:17:15;8.20;;;2.10;;
72198;SDS011;60103;51.014;16.992;2022-11-03T13:19:42;8.20;;;2.30;;
72198;SDS011;60103;51.014;16.992;2022-11-03T13:22:10;9.10;;;1.90;;
72198;SDS011;60103;51.014;16.992;2022-11-03T13:24:38;11.10;;;2.50;;
72198;SDS011;60103;51.014;16.992;2022-11-03T13:27:05;10.90;;;2.60;;
72198;SDS011;60103;51.014;16.992;2022-11-03T13:29:33;9.10;;;2.30;;
72198;SDS011;60103;51.014;16.992;2022-11-03T13:32:04;8.10;;;2.30;;
72198;SDS011;60103;51.014;16.992;2022-11-03T13:34:32;10.50;;;2.50;;
72198;SDS011;60103;51.014;16.992;2022-11-03T13:37:00;8.90;;;2.40;;
72198;SDS011;60103;51.014;16.992;2022-11-03T13:39:27;11.10;;;3.00;;
72198;SDS011;60103;51.014;16.992;2022-11-03T13:41:54;14.10;;;3.30;;
72198;SDS011;60103;51.014;16.992;2022-11-03T13:44:22;9.60;;;3.10;;
72198;SDS011;60103;51.014;16.992;2022-11-03T13:46:49;10.50;;;3.10;;
72198;SDS011;60103;51.014;16.992;2022-11-03T13:49:17;12.80;;;3.30;;
72198;SDS011;60103;51.014;16.992;2022-11-03T13:52:07;9.60;;;2.80;;
72198;SDS011;60103;51.014;16.992;2022-11-03T13:54:34;11.10;;;2.70;;
72198;SDS011;60103;51.014;16.992;2022-11-03T13:57:21;8.80;;;2.90;;
72198;SDS011;60103;51.014;16.992;2022-11-03T14:00:09;11.80;;;3.40;;
72198;SDS011;60103;51.014;16.992;2022-11-03T14:02:39;9.70;;;3.20;;
72198;SDS011;60103;51.014;16.992;2022-11-03T14:05:27;9.80;;;3.10;;
72198;SDS011;60103;51.014;16.992;2022-11-03T14:07:54;13.20;;;4.20;;
72198;SDS011;60103;51.014;16.992;2022-11-03T14:10:21;10.40;;;3.80;;
72198;SDS011;60103;51.014;16.992;2022-11-03T14:12:48;12.00;;;3.70;;
72198;SDS011;60103;51.014;16.992;2022-11-03T14:15:18;14.50;;;4.40;;
72198;SDS011;60103;51.014;16.992;2022-11-03T14:17:46;14.50;;;4.80;;
72198;SDS011;60103;51.014;16.992;2022-11-03T14:20:13;13.80;;;4.10;;
72198;SDS011;60103;51.014;16.992;2022-11-03T14:22:41;13.60;;;4.00;;
72198;SDS011;60103;51.014;16.992;2022-11-03T14:25:08;10.80;;;3.90;;
72198;SDS011;60103;51.014;16.992;2022-11-03T14:27:35;11.30;;;3.40;;
72198;SDS011;60103;51.014;16.992;2022-11-03T14:30:06;13.50;;;4.10;;
72198;SDS011;60103;51.014;16.992;2022-11-03T14:32:40;11.30;;;3.60;;
72198;SDS011;60103;51.014;16.992;2022-11-03T14:35:08;10.40;;;3.50;;
72198;SDS011;60103;51.014;16.992;2022-11-03T14:37:36;11.00;;;3.60;;
72198;SDS011;60103;51.014;16.992;2022-11-03T14:40:04;11.00;;;4.10;;
72198;SDS011;60103;51.014;16.992;2022-11-03T14:42:32;10.40;;;3.40;;
72198;SDS011;60103;51.014;16.992;2022-11-03T14:44:59;14.90;;;4.30;;
72198;SDS011;60103;51.014;16.992;2022-11-03T14:47:26;12.20;;;3.70;;
72198;SDS011;60103;51.014;16.992;2022-11-03T14:49:57;14.80;;;3.80;;
72198;SDS011;60103;51.014;16.992;2022-11-03T14:52:24;14.00;;;4.30;;
72198;SDS011;60103;51.014;16.992;2022-11-03T14:54:51;12.10;;;3.90;;
72198;SDS011;60103;51.014;16.992;2022-11-03T14:57:19;11.40;;;3.70;;
72198;SDS011;60103;51.014;16.992;2022-11-03T14:59:46;13.70;;;3.90;;
72198;SDS011;60103;51.014;16.992;2022-11-03T15:02:19;10.70;;;3.80;;
72198;SDS011;60103;51.014;16.992;2022-11-03T15:04:46;12.80;;;4.10;;
72198;SDS011;60103;51.014;16.992;2022-11-03T15:07:13;12.90;;;3.70;;
72198;SDS011;60103;51.014;16.992;2022-11-03T15:09:41;12.10;;;4.20;;
72198;SDS011;60103;51.014;16.992;2022-11-03T15:12:08;12.90;;;4.70;;
72198;SDS011;60103;51.014;16.992;2022-11-03T15:14:36;18.60;;;6.00;;
72198;SDS011;60103;51.014;16.992;2022-11-03T15:17:03;21.50;;;7.60;;
72198;SDS011;60103;51.014;16.992;2022-11-03T15:19:30;16.30;;;5.60;;
72198;SDS011;60103;51.014;16.992;2022-11-03T15:21:57;15.40;;;5.30;;
72198;SDS011;60103;51.014;16.992;2022-11-03T15:24:24;12.90;;;5.00;;
72198;SDS011;60103;51.014;16.992;2022-11-03T15:27:13;12.10;;;4.30;;
72198;SDS011;60103;51.014;16.992;2022-11-03T15:29:42;12.70;;;4.20;;
72198;SDS011;60103;51.014;16.992;2022-11-03T15:32:09;13.00;;;4.50;;
72198;SDS011;60103;51.014;16.992;2022-11-03T15:34:36;14.90;;;4.80;;
72198;SDS011;60103;51.014;16.992;2022-11-03T15:37:04;13.30;;;4.20;;
72198;SDS011;60103;51.014;16.992;2022-11-03T15:39:31;12.90;;;4.90;;
72198;SDS011;60103;51.014;16.992;2022-11-03T15:41:59;12.60;;;4.40;;
72198;SDS011;60103;51.014;16.992;2022-11-03T15:44:26;14.60;;;5.50;;
72198;SDS011;60103;51.014;16.992;2022-11-03T15:46:53;16.80;;;5.00;;
72198;SDS011;60103;51.014;16.992;2022-11-03T15:49:20;13.20;;;5.00;;
72198;SDS011;60103;51.014;16.992;2022-11-03T15:51:48;15.20;;;5.70;;
72198;SDS011;60103;51.014;16.992;2022-11-03T15:54:15;16.20;;;5.80;;
72198;SDS011;60103;51.014;16.992;2022-11-03T15:56:42;14.80;;;6.40;;
72198;SDS011;60103;51.014;16.992;2022-11-03T15:59:09;13.80;;;6.00;;
72198;SDS011;60103;51.014;16.992;2022-11-03T16:01:37;17.80;;;6.80;;
72198;SDS011;60103;51.014;16.992;2022-11-03T16:04:04;15.70;;;5.80;;
72198;SDS011;60103;51.014;16.992;2022-11-03T16:06:32;15.90;;;6.00;;
72198;SDS011;60103;51.014;16.992;2022-11-03T16:09:20;15.70;;;6.60;;
72198;SDS011;60103;51.014;16.992;2022-11-03T16:11:48;25.40;;;8.10;;
72198;SDS011;60103;51.014;16.992;2022-11-03T16:14:15;20.00;;;7.70;;
72198;SDS011;60103;51.014;16.992;2022-11-03T16:16:43;18.30;;;8.10;;
72198;SDS011;60103;51.014;16.992;2022-11-03T16:19:10;18.80;;;7.60;;
72198;SDS011;60103;51.014;16.992;2022-11-03T16:21:37;12.30;;;4.60;;
72198;SDS011;60103;51.014;16.992;2022-11-03T16:24:06;15.50;;;6.40;;
72198;SDS011;60103;51.014;16.992;2022-11-03T16:26:34;21.10;;;8.00;;